KPKB/PKB METAR and TAF weather

Enter ICAO airport designator
Station Type Date Time Source
KPKB METAR 2022/11/26 09:53 UTC NOAA

KPKB 260953Z AUTO 00000KT 10SM CLR M02/M03 A3021 RMK AO2 SLP233 I1000 T10221033


Station Type Date Time Source
KPKB Decoded METAR 2022/11/26 09:53 UTC NOAA

MID-OHIO VALLEY RGNL AIRPORT, WV, United States (KPKB) 39-20N 81-27W
Nov 26, 2022 - 04:53 AM EST / 2022.11.26 0953 UTC
Wind: Calm:0
Visibility: 10 mile(s):0
Sky conditions: clear
Temperature: 28.0 F (-2.2 C)
Dew Point: 26.1 F (-3.3 C)
Relative Humidity: 92%
Pressure (altimeter): 30.21 in. Hg (1023 hPa)
ob: KPKB 260953Z AUTO 00000KT 10SM CLR M02/M03 A3021 RMK AO2 SLP233 I1000 T10221033
cycle: 10

Station Type Date Time Source
KPKB TAF 2022/11/26 09:58 UTC NOAA

TAF
AMD KPKB 260858Z 2609/2706 00000KT P6SM SKC
FM261400 19003KT P6SM SKC
FM262200 15004KT P6SM FEW240

Example: see airport list